sensor_id;sensor_type;location;lat;lon;timestamp;P1;durP1;ratioP1;P2;durP2;ratioP2
57822;SDS011;43650;48.064;20.624;2023-01-29T00:00:07;9.80;;;4.73;;
57822;SDS011;43650;48.064;20.624;2023-01-29T00:01:09;12.50;;;4.87;;
57822;SDS011;43650;48.064;20.624;2023-01-29T00:02:09;14.70;;;6.57;;
57822;SDS011;43650;48.064;20.624;2023-01-29T00:03:10;12.77;;;5.73;;
57822;SDS011;43650;48.064;20.624;2023-01-29T00:04:10;12.90;;;5.30;;
57822;SDS011;43650;48.064;20.624;2023-01-29T00:05:11;8.87;;;5.03;;
57822;SDS011;43650;48.064;20.624;2023-01-29T00:06:11;11.90;;;4.93;;
57822;SDS011;43650;48.064;20.624;2023-01-29T00:07:11;11.00;;;3.67;;
57822;SDS011;43650;48.064;20.624;2023-01-29T00:08:12;13.20;;;5.40;;
57822;SDS011;43650;48.064;20.624;2023-01-29T00:09:13;13.67;;;4.53;;
57822;SDS011;43650;48.064;20.624;2023-01-29T00:10:13;9.15;;;3.92;;
57822;SDS011;43650;48.064;20.624;2023-01-29T00:11:14;13.97;;;5.77;;
57822;SDS011;43650;48.064;20.624;2023-01-29T00:12:15;12.23;;;4.62;;
57822;SDS011;43650;48.064;20.624;2023-01-29T00:13:15;13.67;;;5.70;;
57822;SDS011;43650;48.064;20.624;2023-01-29T00:14:16;13.60;;;5.20;;
57822;SDS011;43650;48.064;20.624;2023-01-29T00:15:17;9.60;;;4.87;;
57822;SDS011;43650;48.064;20.624;2023-01-29T00:16:17;9.48;;;4.35;;
57822;SDS011;43650;48.064;20.624;2023-01-29T00:17:18;11.27;;;4.37;;
57822;SDS011;43650;48.064;20.624;2023-01-29T00:18:18;10.17;;;5.00;;
57822;SDS011;43650;48.064;20.624;2023-01-29T00:19:19;9.93;;;5.30;;
57822;SDS011;43650;48.064;20.624;2023-01-29T00:20:19;10.90;;;4.43;;
57822;SDS011;43650;48.064;20.624;2023-01-29T00:21:20;7.73;;;3.77;;
57822;SDS011;43650;48.064;20.624;2023-01-29T00:23:22;10.68;;;4.12;;
57822;SDS011;43650;48.064;20.624;2023-01-29T00:24:22;6.90;;;4.50;;
57822;SDS011;43650;48.064;20.624;2023-01-29T00:25:22;14.70;;;4.33;;
57822;SDS011;43650;48.064;20.624;2023-01-29T00:26:23;8.17;;;3.73;;
57822;SDS011;43650;48.064;20.624;2023-01-29T00:27:23;11.60;;;4.93;;
57822;SDS011;43650;48.064;20.624;2023-01-29T00:28:24;12.43;;;4.73;;
57822;SDS011;43650;48.064;20.624;2023-01-29T00:29:24;10.13;;;5.13;;
57822;SDS011;43650;48.064;20.624;2023-01-29T00:30:25;13.10;;;5.87;;
57822;SDS011;43650;48.064;20.624;2023-01-29T00:31:25;8.80;;;4.53;;
57822;SDS011;43650;48.064;20.624;2023-01-29T00:32:26;9.93;;;4.63;;
57822;SDS011;43650;48.064;20.624;2023-01-29T00:33:27;9.07;;;4.43;;
57822;SDS011;43650;48.064;20.624;2023-01-29T00:35:28;10.43;;;4.10;;
57822;SDS011;43650;48.064;20.624;2023-01-29T00:36:29;13.18;;;4.68;;
57822;SDS011;43650;48.064;20.624;2023-01-29T00:37:30;11.57;;;4.27;;
57822;SDS011;43650;48.064;20.624;2023-01-29T00:38:30;10.90;;;3.83;;
57822;SDS011;43650;48.064;20.624;2023-01-29T00:39:32;11.90;;;4.55;;
57822;SDS011;43650;48.064;20.624;2023-01-29T00:40:38;13.07;;;5.37;;
57822;SDS011;43650;48.064;20.624;2023-01-29T00:41:56;10.65;;;4.32;;
57822;SDS011;43650;48.064;20.624;2023-01-29T00:43:15;12.05;;;4.18;;
57822;SDS011;43650;48.064;20.624;2023-01-29T00:44:34;8.80;;;4.12;;
57822;SDS011;43650;48.064;20.624;2023-01-29T00:45:53;10.15;;;4.47;;
57822;SDS011;43650;48.064;20.624;2023-01-29T00:46:54;8.47;;;4.90;;
57822;SDS011;43650;48.064;20.624;2023-01-29T00:47:54;10.00;;;4.07;;
57822;SDS011;43650;48.064;20.624;2023-01-29T00:48:55;8.20;;;3.67;;
57822;SDS011;43650;48.064;20.624;2023-01-29T00:49:55;12.30;;;5.03;;
57822;SDS011;43650;48.064;20.624;2023-01-29T00:50:56;15.82;;;4.97;;
57822;SDS011;43650;48.064;20.624;2023-01-29T00:51:56;14.53;;;5.20;;
57822;SDS011;43650;48.064;20.624;2023-01-29T00:53:15;8.82;;;4.32;;
57822;SDS011;43650;48.064;20.624;2023-01-29T00:54:16;11.03;;;4.63;;
57822;SDS011;43650;48.064;20.624;2023-01-29T00:55:16;10.40;;;4.17;;
57822;SDS011;43650;48.064;20.624;2023-01-29T00:56:17;10.77;;;4.47;;
57822;SDS011;43650;48.064;20.624;2023-01-29T00:57:17;11.67;;;4.10;;
57822;SDS011;43650;48.064;20.624;2023-01-29T00:58:17;6.80;;;3.57;;
57822;SDS011;43650;48.064;20.624;2023-01-29T00:59:27;10.65;;;4.28;;
57822;SDS011;43650;48.064;20.624;2023-01-29T01:00:27;6.63;;;4.13;;
57822;SDS011;43650;48.064;20.624;2023-01-29T01:01:28;8.97;;;4.00;;
57822;SDS011;43650;48.064;20.624;2023-01-29T01:02:47;9.20;;;4.25;;
57822;SDS011;43650;48.064;20.624;2023-01-29T01:04:06;8.63;;;3.95;;
57822;SDS011;43650;48.064;20.624;2023-01-29T01:05:08;9.73;;;4.18;;
57822;SDS011;43650;48.064;20.624;2023-01-29T01:06:13;12.13;;;4.15;;
57822;SDS011;43650;48.064;20.624;2023-01-29T01:07:13;12.80;;;4.63;;
57822;SDS011;43650;48.064;20.624;2023-01-29T01:08:13;13.00;;;4.43;;
57822;SDS011;43650;48.064;20.624;2023-01-29T01:09:35;11.12;;;4.35;;
57822;SDS011;43650;48.064;20.624;2023-01-29T01:10:58;12.23;;;5.40;;
57822;SDS011;43650;48.064;20.624;2023-01-29T01:11:59;12.85;;;4.97;;
57822;SDS011;43650;48.064;20.624;2023-01-29T01:13:01;10.93;;;4.87;;
57822;SDS011;43650;48.064;20.624;2023-01-29T01:14:03;9.18;;;4.37;;
57822;SDS011;43650;48.064;20.624;2023-01-29T01:15:03;9.77;;;4.57;;
57822;SDS011;43650;48.064;20.624;2023-01-29T01:16:08;9.93;;;4.43;;
57822;SDS011;43650;48.064;20.624;2023-01-29T01:18:16;8.52;;;4.50;;
57822;SDS011;43650;48.064;20.624;2023-01-29T01:19:18;13.25;;;4.03;;
57822;SDS011;43650;48.064;20.624;2023-01-29T01:20:19;19.80;;;5.60;;
57822;SDS011;43650;48.064;20.624;2023-01-29T01:21:20;10.88;;;4.60;;
57822;SDS011;43650;48.064;20.624;2023-01-29T01:22:20;13.53;;;4.03;;
57822;SDS011;43650;48.064;20.624;2023-01-29T01:23:20;10.30;;;4.37;;
57822;SDS011;43650;48.064;20.624;2023-01-29T01:24:21;11.90;;;4.67;;
57822;SDS011;43650;48.064;20.624;2023-01-29T01:25:22;9.45;;;4.10;;
57822;SDS011;43650;48.064;20.624;2023-01-29T01:26:24;8.43;;;3.40;;
57822;SDS011;43650;48.064;20.624;2023-01-29T01:27:24;11.25;;;4.50;;
57822;SDS011;43650;48.064;20.624;2023-01-29T01:28:26;13.53;;;5.33;;
57822;SDS011;43650;48.064;20.624;2023-01-29T01:30:27;10.20;;;4.22;;
57822;SDS011;43650;48.064;20.624;2023-01-29T01:31:27;8.50;;;3.90;;
57822;SDS011;43650;48.064;20.624;2023-01-29T01:32:28;9.80;;;5.20;;
57822;SDS011;43650;48.064;20.624;2023-01-29T01:33:28;16.33;;;5.17;;
57822;SDS011;43650;48.064;20.624;2023-01-29T01:34:28;10.40;;;3.90;;
57822;SDS011;43650;48.064;20.624;2023-01-29T01:35:29;14.77;;;4.90;;
57822;SDS011;43650;48.064;20.624;2023-01-29T01:36:29;8.10;;;4.50;;
57822;SDS011;43650;48.064;20.624;2023-01-29T01:37:31;11.48;;;4.50;;
57822;SDS011;43650;48.064;20.624;2023-01-29T01:38:31;10.33;;;3.97;;
57822;SDS011;43650;48.064;20.624;2023-01-29T01:39:32;9.23;;;5.07;;
57822;SDS011;43650;48.064;20.624;2023-01-29T01:40:32;13.60;;;4.47;;
57822;SDS011;43650;48.064;20.624;2023-01-29T01:41:33;10.17;;;4.47;;
57822;SDS011;43650;48.064;20.624;2023-01-29T01:42:33;11.13;;;5.33;;
57822;SDS011;43650;48.064;20.624;2023-01-29T01:44:58;8.90;;;4.35;;
57822;SDS011;43650;48.064;20.624;2023-01-29T01:46:03;12.27;;;4.07;;
57822;SDS011;43650;48.064;20.624;2023-01-29T01:47:03;10.10;;;4.87;;
57822;SDS011;43650;48.064;20.624;2023-01-29T01:49:21;10.48;;;4.47;;
57822;SDS011;43650;48.064;20.624;2023-01-29T01:50:26;8.90;;;4.40;;
57822;SDS011;43650;48.064;20.624;2023-01-29T01:51:30;10.15;;;3.90;;
57822;SDS011;43650;48.064;20.624;2023-01-29T01:52:32;12.07;;;5.68;;
57822;SDS011;43650;48.064;20.624;2023-01-29T01:53:34;12.85;;;4.25;;
57822;SDS011;43650;48.064;20.624;2023-01-29T01:54:39;13.25;;;5.05;;
57822;SDS011;43650;48.064;20.624;2023-01-29T01:55:42;10.00;;;5.20;;
57822;SDS011;43650;48.064;20.624;2023-01-29T01:56:46;10.52;;;5.10;;
57822;SDS011;43650;48.064;20.624;2023-01-29T01:57:51;13.00;;;4.78;;
57822;SDS011;43650;48.064;20.624;2023-01-29T01:58:55;12.48;;;4.37;;
57822;SDS011;43650;48.064;20.624;2023-01-29T02:00:00;13.45;;;4.95;;
57822;SDS011;43650;48.064;20.624;2023-01-29T02:02:10;8.85;;;4.40;;
57822;SDS011;43650;48.064;20.624;2023-01-29T02:03:30;13.52;;;4.80;;
57822;SDS011;43650;48.064;20.624;2023-01-29T02:04:53;12.32;;;4.82;;
57822;SDS011;43650;48.064;20.624;2023-01-29T02:06:12;7.45;;;4.32;;
57822;SDS011;43650;48.064;20.624;2023-01-29T02:07:31;9.90;;;4.95;;
57822;SDS011;43650;48.064;20.624;2023-01-29T02:09:24;13.73;;;4.50;;
57822;SDS011;43650;48.064;20.624;2023-01-29T02:10:37;9.82;;;4.78;;
57822;SDS011;43650;48.064;20.624;2023-01-29T02:11:43;13.13;;;4.65;;
57822;SDS011;43650;48.064;20.624;2023-01-29T02:12:43;10.73;;;4.35;;
57822;SDS011;43650;48.064;20.624;2023-01-29T02:13:45;10.77;;;4.40;;
57822;SDS011;43650;48.064;20.624;2023-01-29T02:14:45;11.97;;;5.33;;
57822;SDS011;43650;48.064;20.624;2023-01-29T02:15:46;15.82;;;6.28;;
57822;SDS011;43650;48.064;20.624;2023-01-29T02:17:48;15.25;;;4.75;;
57822;SDS011;43650;48.064;20.624;2023-01-29T02:18:48;13.50;;;5.20;;
57822;SDS011;43650;48.064;20.624;2023-01-29T02:21:19;11.93;;;4.35;;
57822;SDS011;43650;48.064;20.624;2023-01-29T02:27:08;11.75;;;4.47;;
57822;SDS011;43650;48.064;20.624;2023-01-29T02:28:17;12.00;;;5.20;;
57822;SDS011;43650;48.064;20.624;2023-01-29T02:30:49;12.05;;;4.22;;
57822;SDS011;43650;48.064;20.624;2023-01-29T02:32:06;13.30;;;5.18;;
57822;SDS011;43650;48.064;20.624;2023-01-29T02:37:37;10.20;;;3.45;;
57822;SDS011;43650;48.064;20.624;2023-01-29T02:38:42;14.68;;;5.35;;
57822;SDS011;43650;48.064;20.624;2023-01-29T02:39:56;10.65;;;5.30;;
57822;SDS011;43650;48.064;20.624;2023-01-29T02:41:13;12.20;;;4.47;;
57822;SDS011;43650;48.064;20.624;2023-01-29T02:42:18;18.35;;;6.85;;
57822;SDS011;43650;48.064;20.624;2023-01-29T02:44:46;9.82;;;4.75;;
57822;SDS011;43650;48.064;20.624;2023-01-29T02:47:21;10.43;;;4.62;;
57822;SDS011;43650;48.064;20.624;2023-01-29T02:48:22;13.88;;;5.57;;
57822;SDS011;43650;48.064;20.624;2023-01-29T02:51:16;15.52;;;6.07;;
57822;SDS011;43650;48.064;20.624;2023-01-29T02:51:59;9.77;;;5.05;;
57822;SDS011;43650;48.064;20.624;2023-01-29T02:54:15;11.00;;;5.12;;
57822;SDS011;43650;48.064;20.624;2023-01-29T02:55:23;17.02;;;5.10;;
57822;SDS011;43650;48.064;20.624;2023-01-29T02:57:59;12.07;;;4.80;;
57822;SDS011;43650;48.064;20.624;2023-01-29T02:59:07;11.07;;;4.75;;
57822;SDS011;43650;48.064;20.624;2023-01-29T03:01:30;14.60;;;4.68;;
57822;SDS011;43650;48.064;20.624;2023-01-29T03:02:34;8.95;;;4.70;;
57822;SDS011;43650;48.064;20.624;2023-01-29T03:03:41;12.27;;;5.18;;
57822;SDS011;43650;48.064;20.624;2023-01-29T03:04:49;12.57;;;4.62;;
57822;SDS011;43650;48.064;20.624;2023-01-29T03:07:27;13.00;;;5.93;;
57822;SDS011;43650;48.064;20.624;2023-01-29T03:09:01;15.68;;;4.65;;
57822;SDS011;43650;48.064;20.624;2023-01-29T03:10:05;8.90;;;4.57;;
57822;SDS011;43650;48.064;20.624;2023-01-29T03:11:11;12.32;;;6.28;;
57822;SDS011;43650;48.064;20.624;2023-01-29T03:12:16;10.68;;;4.50;;
57822;SDS011;43650;48.064;20.624;2023-01-29T03:13:37;14.93;;;6.12;;
57822;SDS011;43650;48.064;20.624;2023-01-29T03:14:41;11.07;;;5.20;;
57822;SDS011;43650;48.064;20.624;2023-01-29T03:16:04;9.02;;;4.80;;
57822;SDS011;43650;48.064;20.624;2023-01-29T03:17:06;8.00;;;4.60;;
57822;SDS011;43650;48.064;20.624;2023-01-29T03:18:10;11.30;;;4.82;;
57822;SDS011;43650;48.064;20.624;2023-01-29T03:19:15;10.18;;;5.20;;
57822;SDS011;43650;48.064;20.624;2023-01-29T03:20:46;14.87;;;5.53;;
57822;SDS011;43650;48.064;20.624;2023-01-29T03:21:51;11.10;;;5.22;;
57822;SDS011;43650;48.064;20.624;2023-01-29T03:23:02;12.27;;;5.80;;
57822;SDS011;43650;48.064;20.624;2023-01-29T03:24:05;14.73;;;5.05;;
57822;SDS011;43650;48.064;20.624;2023-01-29T03:25:27;11.15;;;5.15;;
57822;SDS011;43650;48.064;20.624;2023-01-29T03:26:46;14.82;;;5.25;;
57822;SDS011;43650;48.064;20.624;2023-01-29T03:28:05;7.78;;;3.97;;
57822;SDS011;43650;48.064;20.624;2023-01-29T03:29:25;12.02;;;4.57;;
57822;SDS011;43650;48.064;20.624;2023-01-29T03:30:47;15.70;;;4.60;;
57822;SDS011;43650;48.064;20.624;2023-01-29T03:32:09;14.10;;;4.97;;
57822;SDS011;43650;48.064;20.624;2023-01-29T03:33:11;10.38;;;4.62;;
57822;SDS011;43650;48.064;20.624;2023-01-29T03:34:14;15.43;;;4.68;;
57822;SDS011;43650;48.064;20.624;2023-01-29T03:35:24;11.43;;;5.82;;
57822;SDS011;43650;48.064;20.624;2023-01-29T03:36:56;13.15;;;5.12;;
57822;SDS011;43650;48.064;20.624;2023-01-29T03:37:57;16.17;;;5.82;;
57822;SDS011;43650;48.064;20.624;2023-01-29T03:38:58;14.70;;;6.03;;
57822;SDS011;43650;48.064;20.624;2023-01-29T03:40:00;15.00;;;5.70;;
57822;SDS011;43650;48.064;20.624;2023-01-29T03:41:03;11.93;;;4.65;;
57822;SDS011;43650;48.064;20.624;2023-01-29T03:43:35;14.25;;;5.12;;
57822;SDS011;43650;48.064;20.624;2023-01-29T03:46:07;14.80;;;6.30;;
57822;SDS011;43650;48.064;20.624;2023-01-29T03:47:17;16.55;;;5.28;;
57822;SDS011;43650;48.064;20.624;2023-01-29T03:50:47;14.03;;;5.90;;
57822;SDS011;43650;48.064;20.624;2023-01-29T03:52:01;11.10;;;5.00;;
57822;SDS011;43650;48.064;20.624;2023-01-29T03:54:42;11.60;;;5.20;;
57822;SDS011;43650;48.064;20.624;2023-01-29T03:59:48;11.93;;;4.78;;
57822;SDS011;43650;48.064;20.624;2023-01-29T04:02:33;12.02;;;4.37;;
57822;SDS011;43650;48.064;20.624;2023-01-29T04:03:41;15.40;;;6.82;;
57822;SDS011;43650;48.064;20.624;2023-01-29T04:05:16;18.12;;;5.90;;
57822;SDS011;43650;48.064;20.624;2023-01-29T04:06:23;14.75;;;6.43;;
57822;SDS011;43650;48.064;20.624;2023-01-29T04:07:26;12.20;;;5.55;;
57822;SDS011;43650;48.064;20.624;2023-01-29T04:08:29;13.65;;;5.82;;
57822;SDS011;43650;48.064;20.624;2023-01-29T04:09:33;13.48;;;4.15;;
57822;SDS011;43650;48.064;20.624;2023-01-29T04:10:40;10.30;;;5.55;;
57822;SDS011;43650;48.064;20.624;2023-01-29T04:11:43;10.65;;;4.72;;
57822;SDS011;43650;48.064;20.624;2023-01-29T04:12:47;12.98;;;5.37;;
57822;SDS011;43650;48.064;20.624;2023-01-29T04:13:50;13.90;;;5.35;;
57822;SDS011;43650;48.064;20.624;2023-01-29T04:14:51;15.35;;;5.70;;
57822;SDS011;43650;48.064;20.624;2023-01-29T04:15:54;9.05;;;4.55;;
57822;SDS011;43650;48.064;20.624;2023-01-29T04:16:56;13.50;;;5.90;;
57822;SDS011;43650;48.064;20.624;2023-01-29T04:17:59;16.62;;;6.12;;
57822;SDS011;43650;48.064;20.624;2023-01-29T04:19:00;16.15;;;5.43;;
57822;SDS011;43650;48.064;20.624;2023-01-29T04:20:01;13.38;;;5.28;;
57822;SDS011;43650;48.064;20.624;2023-01-29T04:21:02;12.45;;;5.03;;
57822;SDS011;43650;48.064;20.624;2023-01-29T04:22:08;16.62;;;4.95;;
57822;SDS011;43650;48.064;20.624;2023-01-29T04:23:22;16.02;;;5.30;;
57822;SDS011;43650;48.064;20.624;2023-01-29T04:24:24;12.90;;;5.03;;
57822;SDS011;43650;48.064;20.624;2023-01-29T04:25:26;12.17;;;5.30;;
57822;SDS011;43650;48.064;20.624;2023-01-29T04:27:57;11.35;;;4.65;;
57822;SDS011;43650;48.064;20.624;2023-01-29T04:32:10;14.55;;;6.05;;
57822;SDS011;43650;48.064;20.624;2023-01-29T04:37:11;10.90;;;5.15;;
57822;SDS011;43650;48.064;20.624;2023-01-29T04:38:33;13.62;;;4.87;;
57822;SDS011;43650;48.064;20.624;2023-01-29T04:39:47;13.35;;;4.70;;
57822;SDS011;43650;48.064;20.624;2023-01-29T04:40:55;11.85;;;4.97;;
57822;SDS011;43650;48.064;20.624;2023-01-29T04:42:51;11.30;;;5.05;;
57822;SDS011;43650;48.064;20.624;2023-01-29T04:43:34;10.85;;;4.80;;
57822;SDS011;43650;48.064;20.624;2023-01-29T04:51:29;13.85;;;4.65;;
57822;SDS011;43650;48.064;20.624;2023-01-29T04:52:46;10.65;;;4.18;;
57822;SDS011;43650;48.064;20.624;2023-01-29T04:53:57;14.07;;;4.57;;
57822;SDS011;43650;48.064;20.624;2023-01-29T04:59:04;14.60;;;4.77;;
57822;SDS011;43650;48.064;20.624;2023-01-29T05:00:12;10.57;;;4.53;;
57822;SDS011;43650;48.064;20.624;2023-01-29T05:01:17;16.25;;;5.12;;
57822;SDS011;43650;48.064;20.624;2023-01-29T05:02:18;11.02;;;4.95;;
57822;SDS011;43650;48.064;20.624;2023-01-29T05:03:20;11.10;;;5.00;;
57822;SDS011;43650;48.064;20.624;2023-01-29T05:04:23;11.77;;;4.65;;
57822;SDS011;43650;48.064;20.624;2023-01-29T05:05:24;15.00;;;4.72;;
57822;SDS011;43650;48.064;20.624;2023-01-29T05:06:25;13.18;;;4.75;;
57822;SDS011;43650;48.064;20.624;2023-01-29T05:07:26;12.15;;;5.18;;
57822;SDS011;43650;48.064;20.624;2023-01-29T05:08:27;14.48;;;4.57;;
57822;SDS011;43650;48.064;20.624;2023-01-29T05:09:29;11.52;;;5.68;;
57822;SDS011;43650;48.064;20.624;2023-01-29T05:10:31;12.82;;;5.53;;
57822;SDS011;43650;48.064;20.624;2023-01-29T05:12:32;15.25;;;5.68;;
57822;SDS011;43650;48.064;20.624;2023-01-29T05:13:35;11.98;;;4.50;;
57822;SDS011;43650;48.064;20.624;2023-01-29T05:14:36;10.15;;;4.55;;
57822;SDS011;43650;48.064;20.624;2023-01-29T05:15:43;12.60;;;4.43;;
57822;SDS011;43650;48.064;20.624;2023-01-29T05:16:49;10.23;;;5.00;;
57822;SDS011;43650;48.064;20.624;2023-01-29T05:17:51;13.00;;;4.95;;
57822;SDS011;43650;48.064;20.624;2023-01-29T05:18:52;10.10;;;3.90;;
57822;SDS011;43650;48.064;20.624;2023-01-29T05:19:54;8.70;;;4.30;;
57822;SDS011;43650;48.064;20.624;2023-01-29T05:20:55;13.90;;;4.95;;
57822;SDS011;43650;48.064;20.624;2023-01-29T05:21:56;12.55;;;5.05;;
57822;SDS011;43650;48.064;20.624;2023-01-29T05:22:57;10.98;;;4.53;;
57822;SDS011;43650;48.064;20.624;2023-01-29T05:24:08;16.27;;;5.97;;
57822;SDS011;43650;48.064;20.624;2023-01-29T05:26:19;21.17;;;5.87;;
57822;SDS011;43650;48.064;20.624;2023-01-29T05:27:38;8.48;;;3.92;;
57822;SDS011;43650;48.064;20.624;2023-01-29T05:28:58;12.70;;;4.43;;
57822;SDS011;43650;48.064;20.624;2023-01-29T05:29:58;16.43;;;5.57;;
57822;SDS011;43650;48.064;20.624;2023-01-29T05:30:58;15.67;;;5.37;;
57822;SDS011;43650;48.064;20.624;2023-01-29T05:31:59;12.03;;;4.63;;
57822;SDS011;43650;48.064;20.624;2023-01-29T05:32:59;17.33;;;5.65;;
57822;SDS011;43650;48.064;20.624;2023-01-29T05:34:00;13.70;;;5.77;;
57822;SDS011;43650;48.064;20.624;2023-01-29T05:35:00;22.63;;;7.07;;
57822;SDS011;43650;48.064;20.624;2023-01-29T05:36:01;11.60;;;4.93;;
57822;SDS011;43650;48.064;20.624;2023-01-29T05:37:01;16.97;;;7.03;;
57822;SDS011;43650;48.064;20.624;2023-01-29T05:38:02;17.13;;;6.37;;
57822;SDS011;43650;48.064;20.624;2023-01-29T05:39:02;14.95;;;7.03;;
57822;SDS011;43650;48.064;20.624;2023-01-29T05:40:03;22.47;;;8.53;;
57822;SDS011;43650;48.064;20.624;2023-01-29T05:41:04;22.02;;;8.18;;
57822;SDS011;43650;48.064;20.624;2023-01-29T05:42:04;24.00;;;7.93;;
57822;SDS011;43650;48.064;20.624;2023-01-29T05:43:05;15.07;;;6.27;;
57822;SDS011;43650;48.064;20.624;2023-01-29T05:44:13;14.32;;;5.40;;
57822;SDS011;43650;48.064;20.624;2023-01-29T05:45:13;13.23;;;5.70;;
57822;SDS011;43650;48.064;20.624;2023-01-29T05:46:14;12.67;;;4.87;;
57822;SDS011;43650;48.064;20.624;2023-01-29T05:47:17;15.90;;;5.23;;
57822;SDS011;43650;48.064;20.624;2023-01-29T05:48:18;11.30;;;4.57;;
57822;SDS011;43650;48.064;20.624;2023-01-29T05:49:19;11.80;;;4.73;;
57822;SDS011;43650;48.064;20.624;2023-01-29T05:50:21;13.13;;;5.22;;
57822;SDS011;43650;48.064;20.624;2023-01-29T05:51:21;18.30;;;5.53;;
57822;SDS011;43650;48.064;20.624;2023-01-29T05:52:22;12.87;;;4.73;;
57822;SDS011;43650;48.064;20.624;2023-01-29T05:53:22;12.47;;;4.40;;
57822;SDS011;43650;48.064;20.624;2023-01-29T05:54:23;8.87;;;4.10;;
57822;SDS011;43650;48.064;20.624;2023-01-29T05:55:23;15.23;;;5.03;;
57822;SDS011;43650;48.064;20.624;2023-01-29T05:56:23;8.43;;;4.57;;
57822;SDS011;43650;48.064;20.624;2023-01-29T05:57:24;14.67;;;5.97;;
57822;SDS011;43650;48.064;20.624;2023-01-29T05:58:24;11.33;;;4.43;;
57822;SDS011;43650;48.064;20.624;2023-01-29T05:59:25;11.87;;;4.83;;
57822;SDS011;43650;48.064;20.624;2023-01-29T06:00:25;12.67;;;4.97;;
57822;SDS011;43650;48.064;20.624;2023-01-29T06:01:26;11.20;;;5.13;;
57822;SDS011;43650;48.064;20.624;2023-01-29T06:02:29;10.83;;;4.97;;
57822;SDS011;43650;48.064;20.624;2023-01-29T06:03:30;11.43;;;4.15;;
57822;SDS011;43650;48.064;20.624;2023-01-29T06:04:30;11.17;;;4.50;;
57822;SDS011;43650;48.064;20.624;2023-01-29T06:05:31;14.33;;;4.87;;
57822;SDS011;43650;48.064;20.624;2023-01-29T06:06:32;10.65;;;4.47;;
57822;SDS011;43650;48.064;20.624;2023-01-29T06:07:32;10.20;;;5.00;;
57822;SDS011;43650;48.064;20.624;2023-01-29T06:08:33;10.93;;;3.97;;
57822;SDS011;43650;48.064;20.624;2023-01-29T06:09:33;8.77;;;4.13;;
57822;SDS011;43650;48.064;20.624;2023-01-29T06:10:33;8.83;;;4.00;;
57822;SDS011;43650;48.064;20.624;2023-01-29T06:11:34;9.67;;;4.20;;
57822;SDS011;43650;48.064;20.624;2023-01-29T06:12:34;10.00;;;4.87;;
57822;SDS011;43650;48.064;20.624;2023-01-29T06:13:35;9.90;;;4.20;;
57822;SDS011;43650;48.064;20.624;2023-01-29T06:14:35;12.03;;;4.53;;
57822;SDS011;43650;48.064;20.624;2023-01-29T06:15:38;11.67;;;4.43;;
57822;SDS011;43650;48.064;20.624;2023-01-29T06:16:39;14.48;;;4.28;;
57822;SDS011;43650;48.064;20.624;2023-01-29T06:17:40;13.63;;;5.33;;
57822;SDS011;43650;48.064;20.624;2023-01-29T06:18:41;9.02;;;3.47;;
57822;SDS011;43650;48.064;20.624;2023-01-29T06:19:42;9.95;;;4.20;;
57822;SDS011;43650;48.064;20.624;2023-01-29T06:20:42;11.47;;;4.70;;
57822;SDS011;43650;48.064;20.624;2023-01-29T06:21:42;8.30;;;3.73;;
57822;SDS011;43650;48.064;20.624;2023-01-29T06:22:43;11.83;;;4.73;;
57822;SDS011;43650;48.064;20.624;2023-01-29T06:23:43;10.50;;;4.33;;
57822;SDS011;43650;48.064;20.624;2023-01-29T06:24:44;14.47;;;5.87;;
57822;SDS011;43650;48.064;20.624;2023-01-29T06:25:44;13.03;;;5.00;;
57822;SDS011;43650;48.064;20.624;2023-01-29T06:26:45;11.67;;;4.87;;
57822;SDS011;43650;48.064;20.624;2023-01-29T06:27:45;12.00;;;5.80;;
57822;SDS011;43650;48.064;20.624;2023-01-29T06:28:49;11.80;;;4.80;;
57822;SDS011;43650;48.064;20.624;2023-01-29T06:29:50;10.15;;;4.68;;
57822;SDS011;43650;48.064;20.624;2023-01-29T06:30:50;11.00;;;4.17;;
57822;SDS011;43650;48.064;20.624;2023-01-29T06:31:51;11.10;;;4.57;;
57822;SDS011;43650;48.064;20.624;2023-01-29T06:32:54;12.13;;;4.57;;
57822;SDS011;43650;48.064;20.624;2023-01-29T06:33:55;11.40;;;4.32;;
57822;SDS011;43650;48.064;20.624;2023-01-29T06:34:55;13.60;;;5.37;;
57822;SDS011;43650;48.064;20.624;2023-01-29T06:35:57;11.73;;;5.00;;
57822;SDS011;43650;48.064;20.624;2023-01-29T06:37:01;54.90;;;20.17;;
57822;SDS011;43650;48.064;20.624;2023-01-29T06:38:02;53.87;;;19.37;;
57822;SDS011;43650;48.064;20.624;2023-01-29T06:39:02;30.33;;;10.73;;
57822;SDS011;43650;48.064;20.624;2023-01-29T06:40:03;17.50;;;6.93;;
57822;SDS011;43650;48.064;20.624;2023-01-29T06:41:10;15.40;;;6.55;;
57822;SDS011;43650;48.064;20.624;2023-01-29T06:42:11;14.05;;;7.18;;
57822;SDS011;43650;48.064;20.624;2023-01-29T06:43:12;15.43;;;6.27;;
57822;SDS011;43650;48.064;20.624;2023-01-29T06:44:12;16.47;;;5.60;;
57822;SDS011;43650;48.064;20.624;2023-01-29T06:45:13;13.17;;;5.37;;
57822;SDS011;43650;48.064;20.624;2023-01-29T06:46:13;14.40;;;5.27;;
57822;SDS011;43650;48.064;20.624;2023-01-29T06:47:13;11.13;;;4.33;;
57822;SDS011;43650;48.064;20.624;2023-01-29T06:48:14;12.97;;;3.70;;
57822;SDS011;43650;48.064;20.624;2023-01-29T06:49:14;10.10;;;4.63;;
57822;SDS011;43650;48.064;20.624;2023-01-29T06:50:15;10.60;;;3.83;;
57822;SDS011;43650;48.064;20.624;2023-01-29T06:51:15;10.73;;;4.23;;
57822;SDS011;43650;48.064;20.624;2023-01-29T06:52:16;13.83;;;4.10;;
57822;SDS011;43650;48.064;20.624;2023-01-29T06:53:16;9.47;;;4.20;;
57822;SDS011;43650;48.064;20.624;2023-01-29T06:54:17;10.20;;;4.03;;
57822;SDS011;43650;48.064;20.624;2023-01-29T06:55:17;7.77;;;3.27;;
57822;SDS011;43650;48.064;20.624;2023-01-29T06:56:18;12.67;;;4.20;;
57822;SDS011;43650;48.064;20.624;2023-01-29T06:57:18;9.80;;;4.50;;
57822;SDS011;43650;48.064;20.624;2023-01-29T06:58:19;7.10;;;4.27;;
57822;SDS011;43650;48.064;20.624;2023-01-29T06:59:20;19.75;;;6.05;;
57822;SDS011;43650;48.064;20.624;2023-01-29T07:00:20;8.00;;;4.23;;
57822;SDS011;43650;48.064;20.624;2023-01-29T07:01:20;13.73;;;4.73;;
57822;SDS011;43650;48.064;20.624;2023-01-29T07:02:21;7.77;;;4.40;;
57822;SDS011;43650;48.064;20.624;2023-01-29T07:03:22;7.75;;;4.20;;
57822;SDS011;43650;48.064;20.624;2023-01-29T07:04:22;11.10;;;4.33;;
57822;SDS011;43650;48.064;20.624;2023-01-29T07:05:22;8.37;;;3.73;;
57822;SDS011;43650;48.064;20.624;2023-01-29T07:06:26;11.63;;;4.97;;
57822;SDS011;43650;48.064;20.624;2023-01-29T07:07:27;15.05;;;4.70;;
57822;SDS011;43650;48.064;20.624;2023-01-29T07:08:28;29.83;;;7.90;;
57822;SDS011;43650;48.064;20.624;2023-01-29T07:09:28;57.03;;;18.53;;
57822;SDS011;43650;48.064;20.624;2023-01-29T07:10:29;35.70;;;14.20;;
57822;SDS011;43650;48.064;20.624;2023-01-29T07:11:30;26.98;;;11.55;;
57822;SDS011;43650;48.064;20.624;2023-01-29T07:12:31;22.48;;;8.40;;
57822;SDS011;43650;48.064;20.624;2023-01-29T07:13:31;39.47;;;14.07;;
57822;SDS011;43650;48.064;20.624;2023-01-29T07:14:32;41.53;;;15.15;;
57822;SDS011;43650;48.064;20.624;2023-01-29T07:15:33;22.23;;;9.43;;
57822;SDS011;43650;48.064;20.624;2023-01-29T07:16:33;19.83;;;7.60;;
57822;SDS011;43650;48.064;20.624;2023-01-29T07:17:33;10.40;;;5.23;;
57822;SDS011;43650;48.064;20.624;2023-01-29T07:18:34;9.80;;;4.10;;
57822;SDS011;43650;48.064;20.624;2023-01-29T07:19:34;9.80;;;4.17;;
57822;SDS011;43650;48.064;20.624;2023-01-29T07:20:35;19.93;;;7.40;;